Terminal Aerodrome Forecast
Issued by NWS

Home | Current Version | Previous Version | Text Only | Print | Product List | Glossary On
Versions: 1 2 3 4 5 6 7 8 9 10 11 12 13 14 15 16 17 18
366
FTUS43 KJKL 011720
TAFSME
TAF
KSME 011720Z 0118/0218 25007KT P6SM BKN040
     FM012100 24007KT P6SM VCTS BKN050CB
     FM012330 VRB03KT P6SM VCSH BKN050
     FM020800 00000KT 1SM BR BKN008
     FM021400 VRB03KT P6SM BKN035
     FM021600 24005KT P6SM BKN040=

USA.gov is the U.S. government's official web portal to all federal, state and local government web resources and services.